Select your language:
Online Marketing Agentur sucht Gipfelstürmer   Bad Gastein Ultraks   18th Kalahari Augrabies Extreme Marathon  
  AK:   Land:   Ø Geschw.:   AK-Wertung:   
Datum: 04.08.2012 Send Link
Veranstaltung: Santa Cruz Trail Run (USA) Mehr Details zum Lauf.
Strecke: 50km Landschaftslauf/Trail Ewige Bestenliste dieser Veranstaltung.
Finisher: 28 (22 M, 6 W) Mehrfach-Finisher.
Bestenlisten-tauglich: Nein
Ergebnisliste von: Link (Quelle zum Zeitpunkt der Erfassung.)
Erfassung durch: Jörgen Zimmer     11.08.2016 17:14
 
28 Suchergebnisse
Gesamt- Rang Leistung Nachname, Vorname Verein Nat. Jg. M/W Rang M/W AK AK Rang Ø Geschw. km/h alters- korrigierte Leistung
1 4:13:34 h   Wehan, Christopher *Santa Cruz, CA   USA  1982 M 1 M23  1 11.831 4:13:34 h
2 5:06:31 h   Schnaitter, Karl *Mountain View, CA   USA  1982 M 2 M23  2 9.787 5:06:31 h
3 5:12:51 h   Tanaka, Mark *Hayward, CA   USA  1967 M 3 M40  1 9.589 4:54:58 h
4 5:14:18 h   Eide, Christopher *Palo Alto, CA   USA  1976 M 4 M35  1 9.545 5:12:44 h
5 5:25:10 h   Ohler, Glenn *Atascadero, CA   USA  1962 M 5 M45  1 9.226 4:53:56 h
6 5:36:23 h   Schranz, Eric *Sacramento, CA   USA  1975 M 6 M35  2 8.918 5:33:42 h
7 5:43:11 h   Roberts, Andy *Tallahassee, FL   USA  1967 M 7 M40  2 8.742 5:23:34 h
8 6:06:33 h   Thayer, Kevin *Salinas, CA   USA  1966 M 8 M45  2 8.184 5:42:44 h
9 6:15:11 h   Delfin, Rolly *Freedom, CA   USA  1982 M 9 M23  3 7.996 6:15:11 h
10 6:22:19 h   Lindberg, Gary *El Granada, CA   USA  1968 M 10 M40  3 7.847 6:03:26 h
11 6:26:36 h   Roed, Daniel *Concord, CA   USA  1968 M 11 M40  4 7.760 6:07:31 h
12 6:28:14 h   Mark, John *Santa Cruz, CA   USA  1952 M 12 M55  1 7.727 5:20:44 h
13 6:51:28 h   Hammond, Kirk *Templeton, CA   USA  1964 M 13 M45  3 7.291 6:18:21 h
14 6:53:09 h   Mann, Robert *Prunedale, CA   USA  1971 M 14 M40  5 7.261 6:41:48 h
15 7:06:11 h   Hudec, Peter *Brooklyn, NY   USA  1970 M 15 M40  6 7.039 6:51:37 h
16 7:06:17 h   Hsu, Sam *Fremont, CA   USA  1961 M 16 M50  1 7.038 6:22:00 h
17 7:14:09 h   Dudney, Gary *Salinas, CA   USA  1952 M 17 M55  2 6.910 5:58:40 h
18 7:23:50 h   Brown, Dwight *Los Altos, CA   USA  1961 M 18 M50  2 6.759 6:37:44 h
19 7:34:05 h   Mortimer, Holly *Boise, ID   USA  1969 W 1 W40  1 6.607 7:14:20 h
20 7:36:22 h   Drake, Alyshia *Ione, CA   USA  1974 W 2 W35  1 6.574 7:29:43 h
21 7:36:44 h   Mingoa, Peter *San Francisco, CA   USA  1970 M 19 M40  7 6.568 7:21:07 h
22 7:41:19 h   McCluhan, Joanne *Clayton, CA   USA  1969 W 3 W40  2 6.503 7:21:15 h
23 7:49:54 h   Tarbet, Michael *Felton, CA   USA  1953 M 20 M55  3 6.384 6:31:51 h
24 7:58:04 h   Reisner, Dan *San Ramon, CA   USA  1972 M 21 M35  3 6.275 7:47:45 h
25 8:14:21 h   Beane, Abbie *Monterey, CA   USA  1982 W 4 W23  1 6.069 8:14:21 h
26 8:14:23 h   Sullivan, Ryan *Monterey, CA   USA  1980 M 22 M23  4 6.068 8:14:23 h
27 8:40:20 h   Yu, Emily *San Francisco, CA   USA  1978 W 5 W23  2 5.766 8:38:59 h
28 8:41:33 h   Diaz, Minel *Redwood City, CA   USA  1975 W 6 W35  2 5.752 8:35:59 h